sensor_id;sensor_type;location;lat;lon;timestamp;P1;durP1;ratioP1;P2;durP2;ratioP2
9007;SDS011;62813;51.424;6.762;2022-11-04T00:00:11;2.00;;;1.30;;
9007;SDS011;62813;51.424;6.762;2022-11-04T00:02:39;3.73;;;1.10;;
9007;SDS011;62813;51.424;6.762;2022-11-04T00:05:05;1.63;;;1.30;;
9007;SDS011;62813;51.424;6.762;2022-11-04T00:07:33;1.63;;;1.10;;
9007;SDS011;62813;51.424;6.762;2022-11-04T00:10:18;1.63;;;1.40;;
9007;SDS011;62813;51.424;6.762;2022-11-04T00:13:04;2.53;;;1.20;;
9007;SDS011;62813;51.424;6.762;2022-11-04T00:15:35;1.80;;;1.40;;
9007;SDS011;62813;51.424;6.762;2022-11-04T00:18:21;2.23;;;1.30;;
9007;SDS011;62813;51.424;6.762;2022-11-04T00:20:47;2.33;;;1.20;;
9007;SDS011;62813;51.424;6.762;2022-11-04T00:23:32;2.70;;;1.40;;
9007;SDS011;62813;51.424;6.762;2022-11-04T00:26:18;1.37;;;1.00;;
9007;SDS011;62813;51.424;6.762;2022-11-04T00:29:04;1.87;;;1.20;;
9007;SDS011;62813;51.424;6.762;2022-11-04T00:31:30;2.37;;;1.27;;
9007;SDS011;62813;51.424;6.762;2022-11-04T00:34:17;4.50;;;1.10;;
9007;SDS011;62813;51.424;6.762;2022-11-04T00:36:44;2.80;;;1.47;;
9007;SDS011;62813;51.424;6.762;2022-11-04T00:39:10;1.77;;;1.20;;
9007;SDS011;62813;51.424;6.762;2022-11-04T00:41:37;1.23;;;1.10;;
9007;SDS011;62813;51.424;6.762;2022-11-04T00:44:04;1.83;;;1.17;;
9007;SDS011;62813;51.424;6.762;2022-11-04T00:46:31;1.50;;;1.30;;
9007;SDS011;62813;51.424;6.762;2022-11-04T00:48:59;1.50;;;1.40;;
9007;SDS011;62813;51.424;6.762;2022-11-04T00:51:25;2.00;;;1.47;;
9007;SDS011;62813;51.424;6.762;2022-11-04T00:53:52;2.17;;;1.50;;
9007;SDS011;62813;51.424;6.762;2022-11-04T00:56:20;3.20;;;1.70;;
9007;SDS011;62813;51.424;6.762;2022-11-04T00:58:47;2.40;;;1.77;;
9007;SDS011;62813;51.424;6.762;2022-11-04T01:01:15;3.60;;;1.93;;
9007;SDS011;62813;51.424;6.762;2022-11-04T01:03:45;3.03;;;2.07;;
9007;SDS011;62813;51.424;6.762;2022-11-04T01:06:13;3.50;;;2.00;;
9007;SDS011;62813;51.424;6.762;2022-11-04T01:08:40;3.43;;;2.63;;
9007;SDS011;62813;51.424;6.762;2022-11-04T01:11:07;3.20;;;2.70;;
9007;SDS011;62813;51.424;6.762;2022-11-04T01:13:35;4.43;;;3.10;;
9007;SDS011;62813;51.424;6.762;2022-11-04T01:16:04;4.73;;;3.17;;
9007;SDS011;62813;51.424;6.762;2022-11-04T01:18:33;3.57;;;2.80;;
9007;SDS011;62813;51.424;6.762;2022-11-04T01:21:00;5.23;;;2.30;;
9007;SDS011;62813;51.424;6.762;2022-11-04T01:23:28;3.17;;;2.20;;
9007;SDS011;62813;51.424;6.762;2022-11-04T01:25:55;2.33;;;2.13;;
9007;SDS011;62813;51.424;6.762;2022-11-04T01:28:22;4.77;;;1.90;;
9007;SDS011;62813;51.424;6.762;2022-11-04T01:30:48;4.03;;;2.23;;
9007;SDS011;62813;51.424;6.762;2022-11-04T01:33:15;2.43;;;1.70;;
9007;SDS011;62813;51.424;6.762;2022-11-04T01:35:42;4.97;;;2.00;;
9007;SDS011;62813;51.424;6.762;2022-11-04T01:38:08;4.83;;;2.40;;
9007;SDS011;62813;51.424;6.762;2022-11-04T01:40:37;3.00;;;2.00;;
9007;SDS011;62813;51.424;6.762;2022-11-04T01:43:11;4.47;;;2.13;;
9007;SDS011;62813;51.424;6.762;2022-11-04T01:45:52;3.53;;;2.00;;
9007;SDS011;62813;51.424;6.762;2022-11-04T01:48:25;5.00;;;2.10;;
9007;SDS011;62813;51.424;6.762;2022-11-04T01:50:55;3.13;;;2.20;;
9007;SDS011;62813;51.424;6.762;2022-11-04T01:55:56;3.37;;;2.10;;
9007;SDS011;62813;51.424;6.762;2022-11-04T01:58:27;5.40;;;2.00;;
9007;SDS011;62813;51.424;6.762;2022-11-04T02:00:57;3.83;;;2.03;;
9007;SDS011;62813;51.424;6.762;2022-11-04T02:03:34;4.87;;;1.97;;
9007;SDS011;62813;51.424;6.762;2022-11-04T02:06:04;3.97;;;1.87;;
9007;SDS011;62813;51.424;6.762;2022-11-04T02:08:32;2.77;;;2.17;;
9007;SDS011;62813;51.424;6.762;2022-11-04T02:11:00;3.07;;;2.27;;
9007;SDS011;62813;51.424;6.762;2022-11-04T02:13:29;4.93;;;2.10;;
9007;SDS011;62813;51.424;6.762;2022-11-04T02:38:11;7.83;;;3.70;;
9007;SDS011;62813;51.424;6.762;2022-11-04T02:49:09;8.77;;;3.70;;
9007;SDS011;62813;51.424;6.762;2022-11-04T02:51:52;8.10;;;3.80;;
9007;SDS011;62813;51.424;6.762;2022-11-04T02:54:41;6.07;;;3.87;;
9007;SDS011;62813;51.424;6.762;2022-11-04T02:57:14;6.90;;;3.80;;
9007;SDS011;62813;51.424;6.762;2022-11-04T02:59:46;8.53;;;3.93;;
9007;SDS011;62813;51.424;6.762;2022-11-04T03:02:21;9.40;;;3.47;;
9007;SDS011;62813;51.424;6.762;2022-11-04T03:04:53;7.97;;;4.20;;
9007;SDS011;62813;51.424;6.762;2022-11-04T03:07:24;7.80;;;4.60;;
9007;SDS011;62813;51.424;6.762;2022-11-04T03:09:57;10.77;;;4.53;;
9007;SDS011;62813;51.424;6.762;2022-11-04T03:12:29;9.10;;;4.43;;
9007;SDS011;62813;51.424;6.762;2022-11-04T03:15:02;12.03;;;4.47;;
9007;SDS011;62813;51.424;6.762;2022-11-04T03:17:35;9.83;;;4.40;;
9007;SDS011;62813;51.424;6.762;2022-11-04T03:20:21;10.13;;;3.57;;
9007;SDS011;62813;51.424;6.762;2022-11-04T03:22:50;10.17;;;3.73;;
9007;SDS011;62813;51.424;6.762;2022-11-04T03:25:22;9.37;;;4.27;;
9007;SDS011;62813;51.424;6.762;2022-11-04T03:30:38;10.07;;;4.60;;
9007;SDS011;62813;51.424;6.762;2022-11-04T03:33:21;12.13;;;4.80;;
9007;SDS011;62813;51.424;6.762;2022-11-04T03:35:54;12.00;;;5.10;;
9007;SDS011;62813;51.424;6.762;2022-11-04T03:38:21;13.13;;;4.40;;
9007;SDS011;62813;51.424;6.762;2022-11-04T03:40:48;11.20;;;4.40;;
9007;SDS011;62813;51.424;6.762;2022-11-04T03:43:18;6.47;;;3.37;;
9007;SDS011;62813;51.424;6.762;2022-11-04T03:45:49;8.50;;;3.40;;
9007;SDS011;62813;51.424;6.762;2022-11-04T03:48:16;6.77;;;2.60;;
9007;SDS011;62813;51.424;6.762;2022-11-04T03:50:43;7.53;;;2.40;;
9007;SDS011;62813;51.424;6.762;2022-11-04T03:53:16;9.17;;;2.50;;
9007;SDS011;62813;51.424;6.762;2022-11-04T04:03:43;9.57;;;2.53;;
9007;SDS011;62813;51.424;6.762;2022-11-04T04:06:24;5.93;;;2.93;;
9007;SDS011;62813;51.424;6.762;2022-11-04T04:08:56;8.47;;;2.93;;
9007;SDS011;62813;51.424;6.762;2022-11-04T04:11:35;11.43;;;3.03;;
9007;SDS011;62813;51.424;6.762;2022-11-04T04:14:23;6.47;;;3.70;;
9007;SDS011;62813;51.424;6.762;2022-11-04T04:20:00;7.43;;;2.90;;
9007;SDS011;62813;51.424;6.762;2022-11-04T04:22:32;7.63;;;2.53;;
9007;SDS011;62813;51.424;6.762;2022-11-04T04:25:03;6.60;;;2.43;;
9007;SDS011;62813;51.424;6.762;2022-11-04T04:27:52;11.40;;;2.90;;
9007;SDS011;62813;51.424;6.762;2022-11-04T04:30:21;9.90;;;2.90;;
9007;SDS011;62813;51.424;6.762;2022-11-04T04:35:21;6.40;;;2.47;;
9007;SDS011;62813;51.424;6.762;2022-11-04T04:38:11;7.90;;;2.63;;
9007;SDS011;62813;51.424;6.762;2022-11-04T04:41:01;9.27;;;2.63;;
9007;SDS011;62813;51.424;6.762;2022-11-04T04:43:52;6.20;;;2.33;;
9007;SDS011;62813;51.424;6.762;2022-11-04T04:46:38;4.93;;;1.67;;
9007;SDS011;62813;51.424;6.762;2022-11-04T04:49:08;7.17;;;1.57;;
9007;SDS011;62813;51.424;6.762;2022-11-04T04:51:37;5.97;;;1.40;;
9007;SDS011;62813;51.424;6.762;2022-11-04T04:54:06;3.37;;;1.67;;
9007;SDS011;62813;51.424;6.762;2022-11-04T04:56:33;7.80;;;1.67;;
9007;SDS011;62813;51.424;6.762;2022-11-04T04:58:59;6.17;;;1.47;;
9007;SDS011;62813;51.424;6.762;2022-11-04T05:01:26;6.23;;;1.50;;
9007;SDS011;62813;51.424;6.762;2022-11-04T05:03:53;7.17;;;1.67;;
9007;SDS011;62813;51.424;6.762;2022-11-04T05:06:20;6.60;;;1.83;;
9007;SDS011;62813;51.424;6.762;2022-11-04T05:08:46;8.47;;;1.60;;
9007;SDS011;62813;51.424;6.762;2022-11-04T05:11:13;4.40;;;1.60;;
9007;SDS011;62813;51.424;6.762;2022-11-04T05:13:40;8.10;;;1.53;;
9007;SDS011;62813;51.424;6.762;2022-11-04T05:16:07;6.53;;;2.17;;
9007;SDS011;62813;51.424;6.762;2022-11-04T05:18:35;6.73;;;1.60;;
9007;SDS011;62813;51.424;6.762;2022-11-04T05:21:05;4.70;;;1.83;;
9007;SDS011;62813;51.424;6.762;2022-11-04T05:23:34;7.33;;;1.73;;
9007;SDS011;62813;51.424;6.762;2022-11-04T05:26:00;7.60;;;1.97;;
9007;SDS011;62813;51.424;6.762;2022-11-04T05:28:27;8.90;;;1.90;;
9007;SDS011;62813;51.424;6.762;2022-11-04T05:30:54;5.97;;;2.10;;
9007;SDS011;62813;51.424;6.762;2022-11-04T05:33:21;6.50;;;2.17;;
9007;SDS011;62813;51.424;6.762;2022-11-04T05:35:47;8.23;;;2.10;;
9007;SDS011;62813;51.424;6.762;2022-11-04T05:38:14;6.67;;;2.03;;
9007;SDS011;62813;51.424;6.762;2022-11-04T05:40:40;7.33;;;2.20;;
9007;SDS011;62813;51.424;6.762;2022-11-04T05:43:07;8.33;;;2.33;;
9007;SDS011;62813;51.424;6.762;2022-11-04T05:45:34;8.07;;;2.67;;
9007;SDS011;62813;51.424;6.762;2022-11-04T05:48:02;5.50;;;2.00;;
9007;SDS011;62813;51.424;6.762;2022-11-04T05:50:30;5.63;;;1.80;;
9007;SDS011;62813;51.424;6.762;2022-11-04T05:52:58;5.87;;;1.87;;
9007;SDS011;62813;51.424;6.762;2022-11-04T05:55:26;6.10;;;2.30;;
9007;SDS011;62813;51.424;6.762;2022-11-04T05:57:53;8.53;;;2.27;;
9007;SDS011;62813;51.424;6.762;2022-11-04T06:00:19;12.93;;;2.67;;
9007;SDS011;62813;51.424;6.762;2022-11-04T06:02:46;12.37;;;2.47;;
9007;SDS011;62813;51.424;6.762;2022-11-04T06:05:13;6.70;;;2.40;;
9007;SDS011;62813;51.424;6.762;2022-11-04T06:07:39;9.27;;;2.33;;
9007;SDS011;62813;51.424;6.762;2022-11-04T06:10:06;10.30;;;2.30;;
9007;SDS011;62813;51.424;6.762;2022-11-04T06:12:33;5.70;;;2.00;;
9007;SDS011;62813;51.424;6.762;2022-11-04T06:14:59;6.10;;;2.43;;
9007;SDS011;62813;51.424;6.762;2022-11-04T06:17:26;9.60;;;2.73;;
9007;SDS011;62813;51.424;6.762;2022-11-04T06:19:53;6.93;;;2.63;;
9007;SDS011;62813;51.424;6.762;2022-11-04T06:22:19;7.23;;;2.60;;
9007;SDS011;62813;51.424;6.762;2022-11-04T06:24:46;7.37;;;2.90;;
9007;SDS011;62813;51.424;6.762;2022-11-04T06:27:13;6.30;;;2.60;;
9007;SDS011;62813;51.424;6.762;2022-11-04T06:29:43;9.57;;;2.93;;
9007;SDS011;62813;51.424;6.762;2022-11-04T06:32:11;7.23;;;3.00;;
9007;SDS011;62813;51.424;6.762;2022-11-04T06:34:42;9.87;;;2.97;;
9007;SDS011;62813;51.424;6.762;2022-11-04T06:37:09;9.70;;;2.97;;
9007;SDS011;62813;51.424;6.762;2022-11-04T06:39:36;9.57;;;2.90;;
9007;SDS011;62813;51.424;6.762;2022-11-04T06:42:03;8.87;;;2.90;;
9007;SDS011;62813;51.424;6.762;2022-11-04T06:44:30;16.63;;;3.13;;
9007;SDS011;62813;51.424;6.762;2022-11-04T06:46:59;8.23;;;3.20;;
9007;SDS011;62813;51.424;6.762;2022-11-04T06:49:26;12.60;;;3.20;;
9007;SDS011;62813;51.424;6.762;2022-11-04T06:51:52;7.67;;;3.00;;
9007;SDS011;62813;51.424;6.762;2022-11-04T06:54:19;7.33;;;3.00;;
9007;SDS011;62813;51.424;6.762;2022-11-04T06:56:45;6.27;;;2.83;;
9007;SDS011;62813;51.424;6.762;2022-11-04T06:59:16;10.20;;;2.93;;
9007;SDS011;62813;51.424;6.762;2022-11-04T07:01:44;8.13;;;2.40;;
9007;SDS011;62813;51.424;6.762;2022-11-04T07:04:12;7.27;;;2.93;;
9007;SDS011;62813;51.424;6.762;2022-11-04T07:06:42;8.00;;;2.90;;
9007;SDS011;62813;51.424;6.762;2022-11-04T07:09:13;4.20;;;2.40;;
9007;SDS011;62813;51.424;6.762;2022-11-04T07:11:41;7.63;;;2.40;;
9007;SDS011;62813;51.424;6.762;2022-11-04T07:14:09;8.60;;;2.30;;
9007;SDS011;62813;51.424;6.762;2022-11-04T07:16:36;10.57;;;2.40;;
9007;SDS011;62813;51.424;6.762;2022-11-04T07:19:03;8.13;;;2.47;;
9007;SDS011;62813;51.424;6.762;2022-11-04T07:21:30;4.00;;;1.80;;
9007;SDS011;62813;51.424;6.762;2022-11-04T07:23:57;6.67;;;2.50;;
9007;SDS011;62813;51.424;6.762;2022-11-04T07:26:24;4.33;;;1.93;;
9007;SDS011;62813;51.424;6.762;2022-11-04T07:28:51;6.43;;;2.13;;
9007;SDS011;62813;51.424;6.762;2022-11-04T07:31:17;5.30;;;2.20;;
9007;SDS011;62813;51.424;6.762;2022-11-04T07:33:44;5.57;;;2.10;;
9007;SDS011;62813;51.424;6.762;2022-11-04T07:36:15;7.50;;;2.40;;
9007;SDS011;62813;51.424;6.762;2022-11-04T07:38:42;7.17;;;1.97;;
9007;SDS011;62813;51.424;6.762;2022-11-04T07:41:10;7.20;;;2.23;;
9007;SDS011;62813;51.424;6.762;2022-11-04T07:43:37;4.07;;;1.97;;
9007;SDS011;62813;51.424;6.762;2022-11-04T07:46:07;7.43;;;2.60;;
9007;SDS011;62813;51.424;6.762;2022-11-04T07:48:36;5.83;;;1.90;;
9007;SDS011;62813;51.424;6.762;2022-11-04T07:51:04;8.93;;;2.23;;
9007;SDS011;62813;51.424;6.762;2022-11-04T07:53:32;4.43;;;2.13;;
9007;SDS011;62813;51.424;6.762;2022-11-04T07:56:02;5.60;;;2.20;;
9007;SDS011;62813;51.424;6.762;2022-11-04T07:58:33;10.90;;;2.30;;
9007;SDS011;62813;51.424;6.762;2022-11-04T08:01:01;6.87;;;2.17;;
9007;SDS011;62813;51.424;6.762;2022-11-04T08:03:29;8.63;;;2.63;;
9007;SDS011;62813;51.424;6.762;2022-11-04T08:05:56;12.60;;;2.50;;
9007;SDS011;62813;51.424;6.762;2022-11-04T08:08:26;4.77;;;1.93;;
9007;SDS011;62813;51.424;6.762;2022-11-04T08:10:54;7.77;;;2.33;;
9007;SDS011;62813;51.424;6.762;2022-11-04T08:13:25;8.67;;;2.97;;
9007;SDS011;62813;51.424;6.762;2022-11-04T08:15:53;5.63;;;2.33;;
9007;SDS011;62813;51.424;6.762;2022-11-04T08:18:22;7.07;;;2.60;;
9007;SDS011;62813;51.424;6.762;2022-11-04T08:20:50;9.73;;;2.40;;
9007;SDS011;62813;51.424;6.762;2022-11-04T08:23:17;6.57;;;2.77;;
9007;SDS011;62813;51.424;6.762;2022-11-04T08:25:44;6.93;;;2.10;;
9007;SDS011;62813;51.424;6.762;2022-11-04T08:28:11;9.00;;;2.00;;
9007;SDS011;62813;51.424;6.762;2022-11-04T08:30:56;5.83;;;2.33;;
9007;SDS011;62813;51.424;6.762;2022-11-04T08:33:26;9.00;;;2.33;;
9007;SDS011;62813;51.424;6.762;2022-11-04T08:35:54;4.73;;;1.90;;
9007;SDS011;62813;51.424;6.762;2022-11-04T08:38:24;10.70;;;2.63;;
9007;SDS011;62813;51.424;6.762;2022-11-04T08:40:51;6.33;;;2.43;;
9007;SDS011;62813;51.424;6.762;2022-11-04T08:43:24;7.43;;;2.10;;
9007;SDS011;62813;51.424;6.762;2022-11-04T08:45:52;9.03;;;2.77;;
9007;SDS011;62813;51.424;6.762;2022-11-04T08:48:19;7.10;;;2.27;;
9007;SDS011;62813;51.424;6.762;2022-11-04T08:50:50;6.33;;;2.10;;
9007;SDS011;62813;51.424;6.762;2022-11-04T08:53:18;5.67;;;2.00;;
9007;SDS011;62813;51.424;6.762;2022-11-04T08:55:45;11.77;;;2.47;;
9007;SDS011;62813;51.424;6.762;2022-11-04T08:58:12;7.43;;;2.47;;
9007;SDS011;62813;51.424;6.762;2022-11-04T09:00:38;6.93;;;2.23;;
9007;SDS011;62813;51.424;6.762;2022-11-04T09:03:05;5.47;;;2.00;;
9007;SDS011;62813;51.424;6.762;2022-11-04T09:05:35;4.97;;;2.40;;
9007;SDS011;62813;51.424;6.762;2022-11-04T09:08:14;7.50;;;2.30;;
9007;SDS011;62813;51.424;6.762;2022-11-04T09:10:42;7.17;;;1.80;;
9007;SDS011;62813;51.424;6.762;2022-11-04T09:13:10;4.87;;;2.30;;
9007;SDS011;62813;51.424;6.762;2022-11-04T09:15:38;6.63;;;2.53;;
9007;SDS011;62813;51.424;6.762;2022-11-04T09:18:05;8.50;;;2.33;;
9007;SDS011;62813;51.424;6.762;2022-11-04T09:20:32;5.30;;;2.40;;
9007;SDS011;62813;51.424;6.762;2022-11-04T09:22:59;5.63;;;2.00;;
9007;SDS011;62813;51.424;6.762;2022-11-04T09:25:28;8.43;;;2.57;;
9007;SDS011;62813;51.424;6.762;2022-11-04T09:27:55;8.13;;;2.40;;
9007;SDS011;62813;51.424;6.762;2022-11-04T09:30:22;5.13;;;2.40;;
9007;SDS011;62813;51.424;6.762;2022-11-04T09:32:49;5.23;;;2.33;;
9007;SDS011;62813;51.424;6.762;2022-11-04T09:35:18;3.30;;;2.00;;
9007;SDS011;62813;51.424;6.762;2022-11-04T09:37:45;4.83;;;2.13;;
9007;SDS011;62813;51.424;6.762;2022-11-04T09:40:18;7.27;;;2.03;;
9007;SDS011;62813;51.424;6.762;2022-11-04T09:45:38;6.60;;;2.40;;
9007;SDS011;62813;51.424;6.762;2022-11-04T09:48:08;5.60;;;2.00;;
9007;SDS011;62813;51.424;6.762;2022-11-04T09:50:47;6.93;;;2.47;;
9007;SDS011;62813;51.424;6.762;2022-11-04T09:56:33;5.53;;;2.30;;
9007;SDS011;62813;51.424;6.762;2022-11-04T09:59:02;6.30;;;2.10;;
9007;SDS011;62813;51.424;6.762;2022-11-04T10:28:46;4.47;;;1.70;;
9007;SDS011;62813;51.424;6.762;2022-11-04T10:31:18;7.03;;;1.80;;
9007;SDS011;62813;51.424;6.762;2022-11-04T10:33:55;4.93;;;1.73;;
9007;SDS011;62813;51.424;6.762;2022-11-04T10:36:28;3.73;;;1.97;;
9007;SDS011;62813;51.424;6.762;2022-11-04T10:38:56;6.27;;;1.90;;
9007;SDS011;62813;51.424;6.762;2022-11-04T10:41:29;7.43;;;2.30;;
9007;SDS011;62813;51.424;6.762;2022-11-04T10:44:02;6.03;;;1.83;;
9007;SDS011;62813;51.424;6.762;2022-11-04T10:51:52;5.07;;;1.73;;
9007;SDS011;62813;51.424;6.762;2022-11-04T10:54:21;5.80;;;1.87;;
9007;SDS011;62813;51.424;6.762;2022-11-04T10:56:51;7.67;;;2.23;;
9007;SDS011;62813;51.424;6.762;2022-11-04T10:59:24;6.73;;;2.43;;
9007;SDS011;62813;51.424;6.762;2022-11-04T11:01:54;10.27;;;2.53;;
9007;SDS011;62813;51.424;6.762;2022-11-04T11:04:28;5.70;;;2.50;;
9007;SDS011;62813;51.424;6.762;2022-11-04T11:06:57;7.77;;;2.60;;
9007;SDS011;62813;51.424;6.762;2022-11-04T11:09:27;8.10;;;2.40;;
9007;SDS011;62813;51.424;6.762;2022-11-04T11:11:59;5.80;;;2.53;;
9007;SDS011;62813;51.424;6.762;2022-11-04T11:14:58;11.83;;;3.03;;
9007;SDS011;62813;51.424;6.762;2022-11-04T11:20:17;8.27;;;2.90;;
9007;SDS011;62813;51.424;6.762;2022-11-04T11:22:44;7.57;;;2.93;;
9007;SDS011;62813;51.424;6.762;2022-11-04T11:25:14;10.70;;;3.70;;
9007;SDS011;62813;51.424;6.762;2022-11-04T11:27:59;10.43;;;2.97;;
9007;SDS011;62813;51.424;6.762;2022-11-04T11:30:29;5.53;;;2.53;;
9007;SDS011;62813;51.424;6.762;2022-11-04T11:32:58;5.07;;;2.33;;
9007;SDS011;62813;51.424;6.762;2022-11-04T11:35:36;6.40;;;2.60;;
9007;SDS011;62813;51.424;6.762;2022-11-04T11:38:14;7.93;;;2.90;;
9007;SDS011;62813;51.424;6.762;2022-11-04T11:40:45;6.77;;;2.50;;
9007;SDS011;62813;51.424;6.762;2022-11-04T11:43:34;7.00;;;2.43;;
9007;SDS011;62813;51.424;6.762;2022-11-04T11:46:03;7.17;;;2.70;;
9007;SDS011;62813;51.424;6.762;2022-11-04T11:48:43;6.53;;;2.53;;
9007;SDS011;62813;51.424;6.762;2022-11-04T11:51:23;11.37;;;2.67;;
9007;SDS011;62813;51.424;6.762;2022-11-04T11:56:44;5.53;;;2.23;;
9007;SDS011;62813;51.424;6.762;2022-11-04T11:59:45;8.33;;;2.30;;
9007;SDS011;62813;51.424;6.762;2022-11-04T12:05:26;7.73;;;2.50;;
9007;SDS011;62813;51.424;6.762;2022-11-04T12:08:33;8.33;;;2.30;;
9007;SDS011;62813;51.424;6.762;2022-11-04T12:11:34;10.33;;;2.97;;
9007;SDS011;62813;51.424;6.762;2022-11-04T12:17:21;8.30;;;2.50;;
9007;SDS011;62813;51.424;6.762;2022-11-04T12:23:10;7.63;;;2.47;;
9007;SDS011;62813;51.424;6.762;2022-11-04T12:26:20;10.13;;;2.73;;
9007;SDS011;62813;51.424;6.762;2022-11-04T12:32:02;9.03;;;2.70;;
9007;SDS011;62813;51.424;6.762;2022-11-04T12:40:15;6.53;;;2.47;;
9007;SDS011;62813;51.424;6.762;2022-11-04T12:43:06;6.87;;;3.10;;
9007;SDS011;62813;51.424;6.762;2022-11-04T12:45:55;7.10;;;2.53;;
9007;SDS011;62813;51.424;6.762;2022-11-04T12:51:29;6.83;;;2.30;;
9007;SDS011;62813;51.424;6.762;2022-11-04T12:54:14;7.13;;;2.70;;
9007;SDS011;62813;51.424;6.762;2022-11-04T12:56:49;7.97;;;4.27;;
9007;SDS011;62813;51.424;6.762;2022-11-04T13:02:33;6.83;;;2.60;;
9007;SDS011;62813;51.424;6.762;2022-11-04T13:13:22;9.40;;;2.50;;
9007;SDS011;62813;51.424;6.762;2022-11-04T13:15:58;6.63;;;2.47;;
9007;SDS011;62813;51.424;6.762;2022-11-04T13:18:30;7.40;;;2.93;;
9007;SDS011;62813;51.424;6.762;2022-11-04T13:24:04;8.37;;;2.57;;
9007;SDS011;62813;51.424;6.762;2022-11-04T13:26:45;6.27;;;2.33;;
9007;SDS011;62813;51.424;6.762;2022-11-04T13:29:14;8.97;;;3.00;;
9007;SDS011;62813;51.424;6.762;2022-11-04T13:37:22;10.37;;;2.73;;
9007;SDS011;62813;51.424;6.762;2022-11-04T13:39:54;8.70;;;2.47;;
9007;SDS011;62813;51.424;6.762;2022-11-04T13:45:48;7.10;;;2.13;;
9007;SDS011;62813;51.424;6.762;2022-11-04T13:48:19;14.43;;;2.73;;
9007;SDS011;62813;51.424;6.762;2022-11-04T13:50:56;10.13;;;2.80;;
9007;SDS011;62813;51.424;6.762;2022-11-04T13:53:38;7.20;;;2.67;;
9007;SDS011;62813;51.424;6.762;2022-11-04T13:59:16;7.03;;;2.57;;
9007;SDS011;62813;51.424;6.762;2022-11-04T14:01:47;10.97;;;2.90;;
9007;SDS011;62813;51.424;6.762;2022-11-04T14:04:28;10.97;;;2.73;;
9007;SDS011;62813;51.424;6.762;2022-11-04T14:07:00;6.47;;;2.30;;
9007;SDS011;62813;51.424;6.762;2022-11-04T14:09:33;8.53;;;2.83;;
9007;SDS011;62813;51.424;6.762;2022-11-04T14:14:50;9.17;;;2.30;;
9007;SDS011;62813;51.424;6.762;2022-11-04T14:22:32;6.30;;;1.77;;
9007;SDS011;62813;51.424;6.762;2022-11-04T14:25:17;8.50;;;1.67;;
9007;SDS011;62813;51.424;6.762;2022-11-04T14:27:45;4.90;;;1.87;;
9007;SDS011;62813;51.424;6.762;2022-11-04T14:32:58;6.80;;;2.00;;
9007;SDS011;62813;51.424;6.762;2022-11-04T14:35:28;8.07;;;1.93;;
9007;SDS011;62813;51.424;6.762;2022-11-04T14:37:57;10.77;;;2.03;;
9007;SDS011;62813;51.424;6.762;2022-11-04T14:40:52;6.93;;;1.77;;
9007;SDS011;62813;51.424;6.762;2022-11-04T14:43:36;8.33;;;1.80;;
9007;SDS011;62813;51.424;6.762;2022-11-04T14:46:07;6.17;;;2.00;;
9007;SDS011;62813;51.424;6.762;2022-11-04T14:48:36;10.10;;;2.13;;
9007;SDS011;62813;51.424;6.762;2022-11-04T14:51:19;7.40;;;1.90;;
9007;SDS011;62813;51.424;6.762;2022-11-04T14:54:18;7.53;;;2.07;;
9007;SDS011;62813;51.424;6.762;2022-11-04T14:56:47;7.67;;;2.17;;
9007;SDS011;62813;51.424;6.762;2022-11-04T14:59:21;11.53;;;2.30;;
9007;SDS011;62813;51.424;6.762;2022-11-04T15:01:49;7.83;;;2.30;;
9007;SDS011;62813;51.424;6.762;2022-11-04T15:06:51;5.40;;;2.37;;
9007;SDS011;62813;51.424;6.762;2022-11-04T15:09:22;8.80;;;2.70;;
9007;SDS011;62813;51.424;6.762;2022-11-04T15:12:05;8.77;;;2.50;;
9007;SDS011;62813;51.424;6.762;2022-11-04T15:14:54;7.80;;;2.10;;
9007;SDS011;62813;51.424;6.762;2022-11-04T15:17:22;7.23;;;2.40;;
9007;SDS011;62813;51.424;6.762;2022-11-04T15:19:52;9.80;;;2.57;;
9007;SDS011;62813;51.424;6.762;2022-11-04T15:22:22;8.37;;;2.90;;
9007;SDS011;62813;51.424;6.762;2022-11-04T15:24:49;6.23;;;2.70;;
9007;SDS011;62813;51.424;6.762;2022-11-04T15:27:16;11.40;;;2.70;;
9007;SDS011;62813;51.424;6.762;2022-11-04T15:29:51;9.33;;;3.30;;
9007;SDS011;62813;51.424;6.762;2022-11-04T15:32:26;11.53;;;3.27;;
9007;SDS011;62813;51.424;6.762;2022-11-04T15:34:53;7.20;;;2.90;;
9007;SDS011;62813;51.424;6.762;2022-11-04T15:37:21;8.23;;;3.23;;
9007;SDS011;62813;51.424;6.762;2022-11-04T15:39:51;11.87;;;3.20;;
9007;SDS011;62813;51.424;6.762;2022-11-04T15:42:21;11.17;;;3.63;;
9007;SDS011;62813;51.424;6.762;2022-11-04T15:53:27;10.97;;;3.63;;
9007;SDS011;62813;51.424;6.762;2022-11-04T15:55:53;9.07;;;3.63;;
9007;SDS011;62813;51.424;6.762;2022-11-04T15:58:20;10.50;;;3.60;;
9007;SDS011;62813;51.424;6.762;2022-11-04T16:00:51;10.83;;;3.50;;
9007;SDS011;62813;51.424;6.762;2022-11-04T16:03:19;11.57;;;3.67;;
9007;SDS011;62813;51.424;6.762;2022-11-04T16:06:09;11.30;;;4.03;;
9007;SDS011;62813;51.424;6.762;2022-11-04T16:08:35;10.27;;;4.17;;
9007;SDS011;62813;51.424;6.762;2022-11-04T16:11:15;10.00;;;3.80;;
9007;SDS011;62813;51.424;6.762;2022-11-04T16:13:44;10.97;;;4.17;;
9007;SDS011;62813;51.424;6.762;2022-11-04T16:18:59;10.93;;;4.30;;
9007;SDS011;62813;51.424;6.762;2022-11-04T16:23:58;12.57;;;5.60;;
9007;SDS011;62813;51.424;6.762;2022-11-04T16:26:28;12.67;;;5.20;;
9007;SDS011;62813;51.424;6.762;2022-11-04T16:28:57;13.37;;;6.00;;
9007;SDS011;62813;51.424;6.762;2022-11-04T16:31:26;12.13;;;6.10;;
9007;SDS011;62813;51.424;6.762;2022-11-04T16:33:58;16.93;;;5.97;;
9007;SDS011;62813;51.424;6.762;2022-11-04T16:36:25;14.30;;;5.83;;
9007;SDS011;62813;51.424;6.762;2022-11-04T16:39:00;9.03;;;6.17;;
9007;SDS011;62813;51.424;6.762;2022-11-04T16:41:31;13.83;;;6.10;;
9007;SDS011;62813;51.424;6.762;2022-11-04T16:44:04;13.40;;;5.93;;
9007;SDS011;62813;51.424;6.762;2022-11-04T16:46:40;14.43;;;6.13;;
9007;SDS011;62813;51.424;6.762;2022-11-04T16:49:08;11.97;;;5.93;;
9007;SDS011;62813;51.424;6.762;2022-11-04T16:51:37;12.60;;;6.17;;
9007;SDS011;62813;51.424;6.762;2022-11-04T16:54:03;14.27;;;6.47;;
9007;SDS011;62813;51.424;6.762;2022-11-04T16:56:30;14.97;;;6.53;;
9007;SDS011;62813;51.424;6.762;2022-11-04T16:58:58;9.63;;;5.87;;
9007;SDS011;62813;51.424;6.762;2022-11-04T17:01:25;13.07;;;6.43;;
9007;SDS011;62813;51.424;6.762;2022-11-04T17:03:52;16.10;;;7.03;;
9007;SDS011;62813;51.424;6.762;2022-11-04T17:06:19;13.50;;;6.97;;
9007;SDS011;62813;51.424;6.762;2022-11-04T17:08:45;13.47;;;6.87;;
9007;SDS011;62813;51.424;6.762;2022-11-04T17:11:12;18.40;;;7.70;;
9007;SDS011;62813;51.424;6.762;2022-11-04T17:13:39;14.70;;;8.03;;
9007;SDS011;62813;51.424;6.762;2022-11-04T17:16:05;11.77;;;8.40;;
9007;SDS011;62813;51.424;6.762;2022-11-04T17:18:36;13.47;;;9.30;;
9007;SDS011;62813;51.424;6.762;2022-11-04T17:21:06;15.63;;;10.07;;
9007;SDS011;62813;51.424;6.762;2022-11-04T17:23:34;16.77;;;9.13;;
9007;SDS011;62813;51.424;6.762;2022-11-04T17:26:01;16.03;;;10.10;;
9007;SDS011;62813;51.424;6.762;2022-11-04T17:28:28;17.57;;;9.40;;
9007;SDS011;62813;51.424;6.762;2022-11-04T17:30:56;14.73;;;9.67;;
9007;SDS011;62813;51.424;6.762;2022-11-04T17:33:23;16.70;;;9.70;;
9007;SDS011;62813;51.424;6.762;2022-11-04T17:35:50;16.03;;;10.37;;
9007;SDS011;62813;51.424;6.762;2022-11-04T17:38:17;17.50;;;11.63;;
9007;SDS011;62813;51.424;6.762;2022-11-04T17:40:44;16.53;;;11.17;;
9007;SDS011;62813;51.424;6.762;2022-11-04T17:43:29;16.50;;;11.70;;
9007;SDS011;62813;51.424;6.762;2022-11-04T17:46:15;16.77;;;11.57;;
9007;SDS011;62813;51.424;6.762;2022-11-04T17:49:01;17.27;;;11.93;;
9007;SDS011;62813;51.424;6.762;2022-11-04T17:51:39;17.10;;;11.23;;
9007;SDS011;62813;51.424;6.762;2022-11-04T17:54:08;16.67;;;11.03;;
9007;SDS011;62813;51.424;6.762;2022-11-04T17:56:35;16.97;;;10.57;;
9007;SDS011;62813;51.424;6.762;2022-11-04T17:59:03;15.63;;;10.43;;
9007;SDS011;62813;51.424;6.762;2022-11-04T18:01:30;16.00;;;11.37;;
9007;SDS011;62813;51.424;6.762;2022-11-04T18:03:58;16.80;;;11.00;;
9007;SDS011;62813;51.424;6.762;2022-11-04T18:06:25;16.20;;;11.70;;
9007;SDS011;62813;51.424;6.762;2022-11-04T18:08:55;15.13;;;10.50;;
9007;SDS011;62813;51.424;6.762;2022-11-04T18:11:23;18.53;;;12.33;;